sensor_id;sensor_type;location;lat;lon;timestamp;P1;durP1;ratioP1;P2;durP2;ratioP2
54384;SDS011;40284;52.878;5.998;2023-10-19T00:00:39;25.83;;;18.70;;
54384;SDS011;40284;52.878;5.998;2023-10-19T00:03:10;21.70;;;16.67;;
54384;SDS011;40284;52.878;5.998;2023-10-19T00:05:37;22.35;;;16.90;;
54384;SDS011;40284;52.878;5.998;2023-10-19T00:08:04;25.15;;;17.90;;
54384;SDS011;40284;52.878;5.998;2023-10-19T00:10:53;23.95;;;17.48;;
54384;SDS011;40284;52.878;5.998;2023-10-19T00:13:27;25.58;;;18.38;;
54384;SDS011;40284;52.878;5.998;2023-10-19T00:15:55;30.80;;;18.05;;
54384;SDS011;40284;52.878;5.998;2023-10-19T00:18:23;23.20;;;17.40;;
54384;SDS011;40284;52.878;5.998;2023-10-19T00:20:50;26.70;;;18.80;;
54384;SDS011;40284;52.878;5.998;2023-10-19T00:23:25;27.20;;;19.02;;
54384;SDS011;40284;52.878;5.998;2023-10-19T00:26:01;26.55;;;18.35;;
54384;SDS011;40284;52.878;5.998;2023-10-19T00:28:34;29.27;;;17.42;;
54384;SDS011;40284;52.878;5.998;2023-10-19T00:31:04;24.13;;;18.50;;
54384;SDS011;40284;52.878;5.998;2023-10-19T00:33:34;26.45;;;17.95;;
54384;SDS011;40284;52.878;5.998;2023-10-19T00:36:04;27.98;;;19.00;;
54384;SDS011;40284;52.878;5.998;2023-10-19T00:38:36;28.15;;;19.10;;
54384;SDS011;40284;52.878;5.998;2023-10-19T00:41:02;26.05;;;18.90;;
54384;SDS011;40284;52.878;5.998;2023-10-19T00:43:35;29.43;;;20.43;;
54384;SDS011;40284;52.878;5.998;2023-10-19T00:46:03;24.65;;;18.25;;
54384;SDS011;40284;52.878;5.998;2023-10-19T00:48:48;28.50;;;19.55;;
54384;SDS011;40284;52.878;5.998;2023-10-19T00:51:16;28.17;;;19.90;;
54384;SDS011;40284;52.878;5.998;2023-10-19T00:53:58;25.85;;;19.23;;
54384;SDS011;40284;52.878;5.998;2023-10-19T00:56:29;31.55;;;19.73;;
54384;SDS011;40284;52.878;5.998;2023-10-19T00:58:58;28.98;;;20.55;;
54384;SDS011;40284;52.878;5.998;2023-10-19T01:01:26;27.20;;;20.60;;
54384;SDS011;40284;52.878;5.998;2023-10-19T01:03:54;31.40;;;21.23;;
54384;SDS011;40284;52.878;5.998;2023-10-19T01:06:24;28.67;;;20.50;;
54384;SDS011;40284;52.878;5.998;2023-10-19T01:08:51;30.55;;;21.50;;
54384;SDS011;40284;52.878;5.998;2023-10-19T01:11:18;29.38;;;20.73;;
54384;SDS011;40284;52.878;5.998;2023-10-19T01:13:49;31.60;;;20.67;;
54384;SDS011;40284;52.878;5.998;2023-10-19T01:16:17;31.27;;;21.60;;
54384;SDS011;40284;52.878;5.998;2023-10-19T01:18:50;30.13;;;19.50;;
54384;SDS011;40284;52.878;5.998;2023-10-19T01:21:20;27.02;;;20.25;;
54384;SDS011;40284;52.878;5.998;2023-10-19T01:23:49;28.50;;;20.60;;
54384;SDS011;40284;52.878;5.998;2023-10-19T01:26:15;28.50;;;20.83;;
54384;SDS011;40284;52.878;5.998;2023-10-19T01:28:47;32.50;;;20.52;;
54384;SDS011;40284;52.878;5.998;2023-10-19T01:31:17;28.45;;;21.00;;
54384;SDS011;40284;52.878;5.998;2023-10-19T01:33:53;26.85;;;19.80;;
54384;SDS011;40284;52.878;5.998;2023-10-19T01:36:23;27.15;;;19.67;;
54384;SDS011;40284;52.878;5.998;2023-10-19T01:38:49;27.00;;;19.67;;
54384;SDS011;40284;52.878;5.998;2023-10-19T01:41:19;26.20;;;20.02;;
54384;SDS011;40284;52.878;5.998;2023-10-19T01:43:49;27.70;;;20.17;;
54384;SDS011;40284;52.878;5.998;2023-10-19T01:46:16;31.35;;;20.90;;
54384;SDS011;40284;52.878;5.998;2023-10-19T01:48:50;25.60;;;19.77;;
54384;SDS011;40284;52.878;5.998;2023-10-19T01:51:20;25.90;;;18.75;;
54384;SDS011;40284;52.878;5.998;2023-10-19T01:53:48;27.77;;;19.75;;
54384;SDS011;40284;52.878;5.998;2023-10-19T01:56:15;26.73;;;18.85;;
54384;SDS011;40284;52.878;5.998;2023-10-19T01:58:47;26.70;;;19.02;;
54384;SDS011;40284;52.878;5.998;2023-10-19T02:01:15;24.35;;;17.20;;
54384;SDS011;40284;52.878;5.998;2023-10-19T02:03:54;25.58;;;17.63;;
54384;SDS011;40284;52.878;5.998;2023-10-19T02:06:23;22.45;;;17.25;;
54384;SDS011;40284;52.878;5.998;2023-10-19T02:08:59;23.02;;;16.35;;
54384;SDS011;40284;52.878;5.998;2023-10-19T02:11:26;21.20;;;16.42;;
54384;SDS011;40284;52.878;5.998;2023-10-19T02:13:54;21.95;;;15.32;;
54384;SDS011;40284;52.878;5.998;2023-10-19T02:16:21;19.17;;;15.10;;
54384;SDS011;40284;52.878;5.998;2023-10-19T02:18:48;20.40;;;14.75;;
54384;SDS011;40284;52.878;5.998;2023-10-19T02:21:14;20.05;;;15.15;;
54384;SDS011;40284;52.878;5.998;2023-10-19T02:23:44;21.55;;;14.63;;
54384;SDS011;40284;52.878;5.998;2023-10-19T02:26:10;16.75;;;13.80;;
54384;SDS011;40284;52.878;5.998;2023-10-19T02:28:38;20.33;;;15.48;;
54384;SDS011;40284;52.878;5.998;2023-10-19T02:31:05;18.27;;;14.40;;
54384;SDS011;40284;52.878;5.998;2023-10-19T02:33:44;19.58;;;14.13;;
54384;SDS011;40284;52.878;5.998;2023-10-19T02:36:29;22.52;;;15.05;;
54384;SDS011;40284;52.878;5.998;2023-10-19T02:39:02;18.65;;;13.55;;
54384;SDS011;40284;52.878;5.998;2023-10-19T02:41:32;18.13;;;13.20;;
54384;SDS011;40284;52.878;5.998;2023-10-19T02:44:00;18.13;;;13.77;;
54384;SDS011;40284;52.878;5.998;2023-10-19T02:46:51;19.17;;;13.75;;
54384;SDS011;40284;52.878;5.998;2023-10-19T02:49:19;17.40;;;13.60;;
54384;SDS011;40284;52.878;5.998;2023-10-19T02:51:46;17.70;;;13.13;;
54384;SDS011;40284;52.878;5.998;2023-10-19T02:54:12;14.95;;;12.00;;
54384;SDS011;40284;52.878;5.998;2023-10-19T02:56:48;15.52;;;12.50;;
54384;SDS011;40284;52.878;5.998;2023-10-19T02:59:17;17.13;;;12.50;;
54384;SDS011;40284;52.878;5.998;2023-10-19T03:01:47;13.57;;;11.68;;
54384;SDS011;40284;52.878;5.998;2023-10-19T03:04:13;15.27;;;12.68;;
54384;SDS011;40284;52.878;5.998;2023-10-19T03:06:40;15.55;;;12.20;;
54384;SDS011;40284;52.878;5.998;2023-10-19T03:09:07;14.75;;;12.32;;
54384;SDS011;40284;52.878;5.998;2023-10-19T03:12:09;15.40;;;12.65;;
54384;SDS011;40284;52.878;5.998;2023-10-19T03:14:35;16.40;;;12.35;;
54384;SDS011;40284;52.878;5.998;2023-10-19T03:17:02;16.38;;;12.98;;
54384;SDS011;40284;52.878;5.998;2023-10-19T03:19:29;16.48;;;12.38;;
54384;SDS011;40284;52.878;5.998;2023-10-19T03:21:55;17.02;;;12.52;;
54384;SDS011;40284;52.878;5.998;2023-10-19T03:24:25;16.10;;;12.80;;
54384;SDS011;40284;52.878;5.998;2023-10-19T03:27:20;15.23;;;11.50;;
54384;SDS011;40284;52.878;5.998;2023-10-19T03:29:50;17.35;;;12.77;;
54384;SDS011;40284;52.878;5.998;2023-10-19T03:32:39;16.50;;;13.40;;
54384;SDS011;40284;52.878;5.998;2023-10-19T03:35:06;17.45;;;13.68;;
54384;SDS011;40284;52.878;5.998;2023-10-19T03:37:32;16.13;;;12.63;;
54384;SDS011;40284;52.878;5.998;2023-10-19T03:40:00;17.25;;;13.50;;
54384;SDS011;40284;52.878;5.998;2023-10-19T03:42:32;14.38;;;12.07;;
54384;SDS011;40284;52.878;5.998;2023-10-19T03:44:58;15.68;;;12.60;;
54384;SDS011;40284;52.878;5.998;2023-10-19T03:47:27;16.40;;;13.10;;
54384;SDS011;40284;52.878;5.998;2023-10-19T03:50:03;20.23;;;15.17;;
54384;SDS011;40284;52.878;5.998;2023-10-19T03:52:35;18.20;;;14.70;;
54384;SDS011;40284;52.878;5.998;2023-10-19T03:55:04;15.00;;;12.75;;
54384;SDS011;40284;52.878;5.998;2023-10-19T03:57:37;14.90;;;12.82;;
54384;SDS011;40284;52.878;5.998;2023-10-19T04:00:07;17.67;;;13.43;;
54384;SDS011;40284;52.878;5.998;2023-10-19T04:02:41;17.00;;;13.50;;
54384;SDS011;40284;52.878;5.998;2023-10-19T04:05:08;22.00;;;17.45;;
54384;SDS011;40284;52.878;5.998;2023-10-19T04:07:45;15.65;;;12.95;;
54384;SDS011;40284;52.878;5.998;2023-10-19T04:10:11;17.67;;;14.18;;
54384;SDS011;40284;52.878;5.998;2023-10-19T04:12:54;15.88;;;12.15;;
54384;SDS011;40284;52.878;5.998;2023-10-19T04:15:20;15.10;;;12.57;;
54384;SDS011;40284;52.878;5.998;2023-10-19T04:17:47;12.98;;;11.57;;
54384;SDS011;40284;52.878;5.998;2023-10-19T04:20:15;15.90;;;12.80;;
54384;SDS011;40284;52.878;5.998;2023-10-19T04:22:42;15.85;;;13.35;;
54384;SDS011;40284;52.878;5.998;2023-10-19T04:25:08;17.58;;;13.48;;
54384;SDS011;40284;52.878;5.998;2023-10-19T04:27:37;16.10;;;12.70;;
54384;SDS011;40284;52.878;5.998;2023-10-19T04:30:05;17.77;;;12.90;;
54384;SDS011;40284;52.878;5.998;2023-10-19T04:32:40;17.48;;;13.32;;
54384;SDS011;40284;52.878;5.998;2023-10-19T04:35:06;18.58;;;14.57;;
54384;SDS011;40284;52.878;5.998;2023-10-19T04:37:36;17.33;;;14.50;;
54384;SDS011;40284;52.878;5.998;2023-10-19T04:40:07;17.55;;;15.07;;
54384;SDS011;40284;52.878;5.998;2023-10-19T04:42:33;19.05;;;14.32;;
54384;SDS011;40284;52.878;5.998;2023-10-19T04:45:02;18.38;;;14.43;;
54384;SDS011;40284;52.878;5.998;2023-10-19T04:47:28;16.80;;;13.65;;
54384;SDS011;40284;52.878;5.998;2023-10-19T04:49:54;16.15;;;13.90;;
54384;SDS011;40284;52.878;5.998;2023-10-19T04:52:20;16.95;;;14.30;;
54384;SDS011;40284;52.878;5.998;2023-10-19T04:54:46;18.05;;;14.48;;
54384;SDS011;40284;52.878;5.998;2023-10-19T04:57:12;20.65;;;15.95;;
54384;SDS011;40284;52.878;5.998;2023-10-19T04:59:39;17.77;;;14.27;;
54384;SDS011;40284;52.878;5.998;2023-10-19T05:02:08;20.73;;;14.15;;
54384;SDS011;40284;52.878;5.998;2023-10-19T05:04:35;20.52;;;16.15;;
54384;SDS011;40284;52.878;5.998;2023-10-19T05:07:01;17.60;;;14.50;;
54384;SDS011;40284;52.878;5.998;2023-10-19T05:09:28;19.58;;;15.88;;
54384;SDS011;40284;52.878;5.998;2023-10-19T05:11:54;20.13;;;16.25;;
54384;SDS011;40284;52.878;5.998;2023-10-19T05:14:22;20.42;;;15.65;;
54384;SDS011;40284;52.878;5.998;2023-10-19T05:16:48;22.05;;;16.38;;
54384;SDS011;40284;52.878;5.998;2023-10-19T05:19:14;19.52;;;15.75;;
54384;SDS011;40284;52.878;5.998;2023-10-19T05:21:40;23.25;;;17.27;;
54384;SDS011;40284;52.878;5.998;2023-10-19T05:24:07;21.98;;;17.83;;
54384;SDS011;40284;52.878;5.998;2023-10-19T05:26:33;23.50;;;17.92;;
54384;SDS011;40284;52.878;5.998;2023-10-19T05:28:59;24.10;;;18.30;;
54384;SDS011;40284;52.878;5.998;2023-10-19T05:31:25;20.83;;;17.08;;
54384;SDS011;40284;52.878;5.998;2023-10-19T05:33:53;23.98;;;18.55;;
54384;SDS011;40284;52.878;5.998;2023-10-19T05:36:19;22.50;;;18.25;;
54384;SDS011;40284;52.878;5.998;2023-10-19T05:38:45;21.45;;;17.42;;
54384;SDS011;40284;52.878;5.998;2023-10-19T05:41:11;23.38;;;17.30;;
54384;SDS011;40284;52.878;5.998;2023-10-19T05:43:38;24.55;;;19.10;;
54384;SDS011;40284;52.878;5.998;2023-10-19T05:46:04;24.00;;;19.38;;
54384;SDS011;40284;52.878;5.998;2023-10-19T05:48:31;23.10;;;18.15;;
54384;SDS011;40284;52.878;5.998;2023-10-19T05:50:57;20.90;;;17.42;;
54384;SDS011;40284;52.878;5.998;2023-10-19T05:53:23;20.80;;;17.65;;
54384;SDS011;40284;52.878;5.998;2023-10-19T05:55:49;25.77;;;20.15;;
54384;SDS011;40284;52.878;5.998;2023-10-19T05:58:15;23.63;;;18.60;;
54384;SDS011;40284;52.878;5.998;2023-10-19T06:00:42;23.65;;;18.48;;
54384;SDS011;40284;52.878;5.998;2023-10-19T06:03:08;28.10;;;20.60;;
54384;SDS011;40284;52.878;5.998;2023-10-19T06:05:34;23.50;;;17.98;;
54384;SDS011;40284;52.878;5.998;2023-10-19T06:08:00;24.05;;;18.20;;
54384;SDS011;40284;52.878;5.998;2023-10-19T06:10:27;21.80;;;17.35;;
54384;SDS011;40284;52.878;5.998;2023-10-19T06:12:54;24.33;;;19.10;;
54384;SDS011;40284;52.878;5.998;2023-10-19T06:15:21;24.85;;;19.05;;
54384;SDS011;40284;52.878;5.998;2023-10-19T06:17:53;24.38;;;19.50;;
54384;SDS011;40284;52.878;5.998;2023-10-19T06:20:19;22.77;;;18.88;;
54384;SDS011;40284;52.878;5.998;2023-10-19T06:22:50;27.25;;;22.02;;
54384;SDS011;40284;52.878;5.998;2023-10-19T06:25:17;25.88;;;19.42;;
54384;SDS011;40284;52.878;5.998;2023-10-19T06:27:43;25.85;;;20.77;;
54384;SDS011;40284;52.878;5.998;2023-10-19T06:30:10;26.02;;;19.90;;
54384;SDS011;40284;52.878;5.998;2023-10-19T06:32:36;27.83;;;21.70;;
54384;SDS011;40284;52.878;5.998;2023-10-19T06:35:03;28.70;;;22.00;;
54384;SDS011;40284;52.878;5.998;2023-10-19T06:37:29;26.63;;;20.45;;
54384;SDS011;40284;52.878;5.998;2023-10-19T06:39:55;29.98;;;21.98;;
54384;SDS011;40284;52.878;5.998;2023-10-19T06:42:21;32.17;;;22.58;;
54384;SDS011;40284;52.878;5.998;2023-10-19T06:44:47;33.28;;;23.88;;
54384;SDS011;40284;52.878;5.998;2023-10-19T06:47:18;27.00;;;21.75;;
54384;SDS011;40284;52.878;5.998;2023-10-19T06:49:45;33.60;;;23.33;;
54384;SDS011;40284;52.878;5.998;2023-10-19T06:52:15;32.33;;;24.52;;
54384;SDS011;40284;52.878;5.998;2023-10-19T06:54:41;29.23;;;22.92;;
54384;SDS011;40284;52.878;5.998;2023-10-19T06:57:07;35.10;;;25.63;;
54384;SDS011;40284;52.878;5.998;2023-10-19T06:59:36;32.47;;;23.95;;
54384;SDS011;40284;52.878;5.998;2023-10-19T07:02:04;34.42;;;25.02;;
54384;SDS011;40284;52.878;5.998;2023-10-19T07:04:32;28.80;;;23.85;;
54384;SDS011;40284;52.878;5.998;2023-10-19T07:06:59;34.90;;;24.70;;
54384;SDS011;40284;52.878;5.998;2023-10-19T07:09:26;35.90;;;25.27;;
54384;SDS011;40284;52.878;5.998;2023-10-19T07:11:52;40.60;;;25.73;;
54384;SDS011;40284;52.878;5.998;2023-10-19T07:14:20;34.83;;;25.40;;
54384;SDS011;40284;52.878;5.998;2023-10-19T07:16:47;34.17;;;23.95;;
54384;SDS011;40284;52.878;5.998;2023-10-19T07:19:14;38.25;;;27.02;;
54384;SDS011;40284;52.878;5.998;2023-10-19T07:21:40;34.30;;;23.83;;
54384;SDS011;40284;52.878;5.998;2023-10-19T07:24:08;37.90;;;27.30;;
54384;SDS011;40284;52.878;5.998;2023-10-19T07:26:36;38.72;;;26.08;;
54384;SDS011;40284;52.878;5.998;2023-10-19T07:29:08;36.47;;;26.67;;
54384;SDS011;40284;52.878;5.998;2023-10-19T07:31:35;45.65;;;29.83;;
54384;SDS011;40284;52.878;5.998;2023-10-19T07:34:01;37.80;;;27.20;;
54384;SDS011;40284;52.878;5.998;2023-10-19T07:36:28;37.15;;;26.05;;
54384;SDS011;40284;52.878;5.998;2023-10-19T07:38:56;44.80;;;31.55;;
54384;SDS011;40284;52.878;5.998;2023-10-19T07:41:22;36.35;;;28.23;;
54384;SDS011;40284;52.878;5.998;2023-10-19T07:43:48;38.05;;;26.50;;
54384;SDS011;40284;52.878;5.998;2023-10-19T07:46:14;41.50;;;30.30;;
54384;SDS011;40284;52.878;5.998;2023-10-19T07:48:40;36.80;;;26.20;;
54384;SDS011;40284;52.878;5.998;2023-10-19T07:51:07;39.83;;;29.10;;
54384;SDS011;40284;52.878;5.998;2023-10-19T07:53:36;42.67;;;28.77;;
54384;SDS011;40284;52.878;5.998;2023-10-19T07:56:02;39.08;;;29.05;;
54384;SDS011;40284;52.878;5.998;2023-10-19T07:58:28;38.95;;;29.27;;
54384;SDS011;40284;52.878;5.998;2023-10-19T08:00:55;40.80;;;29.20;;
54384;SDS011;40284;52.878;5.998;2023-10-19T08:03:21;44.90;;;31.20;;
54384;SDS011;40284;52.878;5.998;2023-10-19T08:05:47;39.22;;;27.65;;
54384;SDS011;40284;52.878;5.998;2023-10-19T08:08:14;41.55;;;29.30;;
54384;SDS011;40284;52.878;5.998;2023-10-19T08:10:40;50.80;;;32.17;;
54384;SDS011;40284;52.878;5.998;2023-10-19T08:13:06;39.00;;;27.80;;
54384;SDS011;40284;52.878;5.998;2023-10-19T08:15:32;50.72;;;33.60;;
54384;SDS011;40284;52.878;5.998;2023-10-19T08:17:58;42.88;;;29.23;;
54384;SDS011;40284;52.878;5.998;2023-10-19T08:20:24;33.78;;;25.70;;
54384;SDS011;40284;52.878;5.998;2023-10-19T08:22:57;34.28;;;26.73;;
54384;SDS011;40284;52.878;5.998;2023-10-19T08:25:23;40.97;;;27.05;;
54384;SDS011;40284;52.878;5.998;2023-10-19T08:27:52;39.25;;;28.88;;
54384;SDS011;40284;52.878;5.998;2023-10-19T08:30:22;36.35;;;27.30;;
54384;SDS011;40284;52.878;5.998;2023-10-19T08:32:48;37.72;;;26.80;;
54384;SDS011;40284;52.878;5.998;2023-10-19T08:35:15;34.40;;;25.17;;
54384;SDS011;40284;52.878;5.998;2023-10-19T08:37:43;32.20;;;26.40;;
54384;SDS011;40284;52.878;5.998;2023-10-19T08:40:11;39.10;;;27.75;;
54384;SDS011;40284;52.878;5.998;2023-10-19T08:42:42;36.50;;;26.10;;
54384;SDS011;40284;52.878;5.998;2023-10-19T08:45:08;40.17;;;29.60;;
54384;SDS011;40284;52.878;5.998;2023-10-19T08:47:37;36.15;;;27.92;;
54384;SDS011;40284;52.878;5.998;2023-10-19T08:50:06;32.78;;;26.20;;
54384;SDS011;40284;52.878;5.998;2023-10-19T08:52:33;37.20;;;27.70;;
54384;SDS011;40284;52.878;5.998;2023-10-19T08:54:59;35.13;;;26.48;;
54384;SDS011;40284;52.878;5.998;2023-10-19T08:57:25;33.17;;;26.40;;
54384;SDS011;40284;52.878;5.998;2023-10-19T08:59:53;32.60;;;24.98;;
54384;SDS011;40284;52.878;5.998;2023-10-19T09:02:23;33.55;;;26.33;;
54384;SDS011;40284;52.878;5.998;2023-10-19T09:04:49;34.65;;;26.95;;
54384;SDS011;40284;52.878;5.998;2023-10-19T09:07:16;37.15;;;26.65;;
54384;SDS011;40284;52.878;5.998;2023-10-19T09:09:43;35.42;;;26.67;;
54384;SDS011;40284;52.878;5.998;2023-10-19T09:12:12;38.47;;;27.63;;
54384;SDS011;40284;52.878;5.998;2023-10-19T09:14:38;40.78;;;28.25;;
54384;SDS011;40284;52.878;5.998;2023-10-19T09:17:08;38.15;;;29.17;;
54384;SDS011;40284;52.878;5.998;2023-10-19T09:22:02;38.45;;;28.55;;
54384;SDS011;40284;52.878;5.998;2023-10-19T09:24:47;34.67;;;27.25;;
54384;SDS011;40284;52.878;5.998;2023-10-19T09:27:16;40.47;;;28.70;;
54384;SDS011;40284;52.878;5.998;2023-10-19T09:29:43;45.10;;;29.00;;
54384;SDS011;40284;52.878;5.998;2023-10-19T09:32:10;41.85;;;31.85;;
54384;SDS011;40284;52.878;5.998;2023-10-19T09:34:39;43.20;;;29.85;;
54384;SDS011;40284;52.878;5.998;2023-10-19T09:37:08;39.20;;;28.55;;
54384;SDS011;40284;52.878;5.998;2023-10-19T09:39:35;41.10;;;30.23;;
54384;SDS011;40284;52.878;5.998;2023-10-19T09:42:08;42.10;;;29.75;;
54384;SDS011;40284;52.878;5.998;2023-10-19T09:44:44;35.58;;;28.17;;
54384;SDS011;40284;52.878;5.998;2023-10-19T09:47:12;40.67;;;28.95;;
54384;SDS011;40284;52.878;5.998;2023-10-19T09:49:40;39.75;;;28.00;;
54384;SDS011;40284;52.878;5.998;2023-10-19T09:52:08;41.42;;;29.52;;
54384;SDS011;40284;52.878;5.998;2023-10-19T09:54:38;39.60;;;28.05;;
54384;SDS011;40284;52.878;5.998;2023-10-19T09:57:10;39.72;;;28.65;;
54384;SDS011;40284;52.878;5.998;2023-10-19T09:59:38;41.10;;;29.63;;
54384;SDS011;40284;52.878;5.998;2023-10-19T10:04:32;35.40;;;27.13;;
54384;SDS011;40284;52.878;5.998;2023-10-19T10:06:59;37.40;;;27.88;;
54384;SDS011;40284;52.878;5.998;2023-10-19T10:09:25;35.10;;;26.88;;
54384;SDS011;40284;52.878;5.998;2023-10-19T10:11:55;36.08;;;27.77;;
54384;SDS011;40284;52.878;5.998;2023-10-19T10:14:22;35.83;;;28.50;;
54384;SDS011;40284;52.878;5.998;2023-10-19T10:17:03;38.63;;;28.83;;
54384;SDS011;40284;52.878;5.998;2023-10-19T10:19:30;37.30;;;28.63;;
54384;SDS011;40284;52.878;5.998;2023-10-19T10:22:03;33.47;;;27.85;;
54384;SDS011;40284;52.878;5.998;2023-10-19T10:24:31;37.08;;;28.60;;
54384;SDS011;40284;52.878;5.998;2023-10-19T10:26:57;36.20;;;29.10;;
54384;SDS011;40284;52.878;5.998;2023-10-19T10:29:24;33.28;;;25.95;;
54384;SDS011;40284;52.878;5.998;2023-10-19T10:31:51;34.00;;;27.27;;
54384;SDS011;40284;52.878;5.998;2023-10-19T10:34:41;35.55;;;28.02;;
54384;SDS011;40284;52.878;5.998;2023-10-19T10:37:08;35.28;;;26.35;;
54384;SDS011;40284;52.878;5.998;2023-10-19T10:39:35;33.25;;;26.95;;
54384;SDS011;40284;52.878;5.998;2023-10-19T10:42:06;37.60;;;25.00;;
54384;SDS011;40284;52.878;5.998;2023-10-19T10:44:42;34.03;;;26.00;;
54384;SDS011;40284;52.878;5.998;2023-10-19T10:47:09;31.65;;;25.35;;
54384;SDS011;40284;52.878;5.998;2023-10-19T10:49:54;32.75;;;23.55;;
54384;SDS011;40284;52.878;5.998;2023-10-19T10:55:07;29.48;;;24.95;;
54384;SDS011;40284;52.878;5.998;2023-10-19T10:57:36;32.72;;;24.85;;
54384;SDS011;40284;52.878;5.998;2023-10-19T11:00:06;29.70;;;24.90;;
54384;SDS011;40284;52.878;5.998;2023-10-19T11:02:40;45.78;;;34.05;;
54384;SDS011;40284;52.878;5.998;2023-10-19T11:05:14;43.30;;;31.25;;
54384;SDS011;40284;52.878;5.998;2023-10-19T11:10:39;53.97;;;41.58;;
54384;SDS011;40284;52.878;5.998;2023-10-19T11:13:08;105.43;;;77.95;;
54384;SDS011;40284;52.878;5.998;2023-10-19T11:15:35;63.55;;;46.13;;
54384;SDS011;40284;52.878;5.998;2023-10-19T11:18:05;44.92;;;33.65;;
54384;SDS011;40284;52.878;5.998;2023-10-19T11:20:32;61.22;;;46.35;;
54384;SDS011;40284;52.878;5.998;2023-10-19T11:22:58;40.17;;;29.77;;
54384;SDS011;40284;52.878;5.998;2023-10-19T11:25:28;32.95;;;23.55;;
54384;SDS011;40284;52.878;5.998;2023-10-19T11:27:58;27.67;;;21.77;;
54384;SDS011;40284;52.878;5.998;2023-10-19T11:30:28;27.33;;;21.98;;
54384;SDS011;40284;52.878;5.998;2023-10-19T11:32:55;28.73;;;21.63;;
54384;SDS011;40284;52.878;5.998;2023-10-19T11:35:27;28.67;;;23.13;;
54384;SDS011;40284;52.878;5.998;2023-10-19T11:37:58;24.92;;;21.83;;
54384;SDS011;40284;52.878;5.998;2023-10-19T11:40:25;24.45;;;21.88;;
54384;SDS011;40284;52.878;5.998;2023-10-19T11:42:52;25.08;;;22.27;;
54384;SDS011;40284;52.878;5.998;2023-10-19T11:45:21;33.70;;;22.02;;
54384;SDS011;40284;52.878;5.998;2023-10-19T11:47:50;30.27;;;22.67;;
54384;SDS011;40284;52.878;5.998;2023-10-19T11:50:17;25.63;;;21.90;;
54384;SDS011;40284;52.878;5.998;2023-10-19T11:52:44;24.90;;;21.98;;
54384;SDS011;40284;52.878;5.998;2023-10-19T11:55:14;26.20;;;21.38;;
54384;SDS011;40284;52.878;5.998;2023-10-19T11:57:42;27.05;;;22.10;;
54384;SDS011;40284;52.878;5.998;2023-10-19T12:00:09;33.42;;;26.70;;
54384;SDS011;40284;52.878;5.998;2023-10-19T12:02:39;29.38;;;22.50;;
54384;SDS011;40284;52.878;5.998;2023-10-19T12:05:06;31.13;;;24.00;;
54384;SDS011;40284;52.878;5.998;2023-10-19T12:07:38;32.03;;;26.42;;
54384;SDS011;40284;52.878;5.998;2023-10-19T12:10:07;34.25;;;26.05;;
54384;SDS011;40284;52.878;5.998;2023-10-19T12:12:34;33.67;;;25.67;;
54384;SDS011;40284;52.878;5.998;2023-10-19T12:15:00;36.85;;;27.50;;
54384;SDS011;40284;52.878;5.998;2023-10-19T12:17:27;29.92;;;24.95;;
54384;SDS011;40284;52.878;5.998;2023-10-19T12:19:55;31.10;;;24.30;;
54384;SDS011;40284;52.878;5.998;2023-10-19T12:22:21;40.03;;;27.90;;
54384;SDS011;40284;52.878;5.998;2023-10-19T12:24:47;34.45;;;26.58;;
54384;SDS011;40284;52.878;5.998;2023-10-19T12:27:13;35.85;;;28.25;;
54384;SDS011;40284;52.878;5.998;2023-10-19T12:29:40;37.97;;;27.60;;
54384;SDS011;40284;52.878;5.998;2023-10-19T12:32:06;49.00;;;34.55;;
54384;SDS011;40284;52.878;5.998;2023-10-19T12:34:32;38.15;;;29.25;;
54384;SDS011;40284;52.878;5.998;2023-10-19T12:36:58;33.92;;;28.83;;
54384;SDS011;40284;52.878;5.998;2023-10-19T12:39:24;38.95;;;29.02;;
54384;SDS011;40284;52.878;5.998;2023-10-19T12:42:12;34.35;;;26.40;;
54384;SDS011;40284;52.878;5.998;2023-10-19T12:44:39;41.35;;;30.20;;
54384;SDS011;40284;52.878;5.998;2023-10-19T12:47:09;35.03;;;25.30;;
54384;SDS011;40284;52.878;5.998;2023-10-19T12:49:38;40.72;;;32.13;;
54384;SDS011;40284;52.878;5.998;2023-10-19T12:52:05;33.13;;;26.80;;
54384;SDS011;40284;52.878;5.998;2023-10-19T12:54:35;40.50;;;26.70;;
54384;SDS011;40284;52.878;5.998;2023-10-19T12:57:02;33.08;;;26.02;;
54384;SDS011;40284;52.878;5.998;2023-10-19T12:59:35;42.25;;;29.20;;
54384;SDS011;40284;52.878;5.998;2023-10-19T13:02:07;35.08;;;28.05;;
54384;SDS011;40284;52.878;5.998;2023-10-19T13:04:40;34.50;;;27.10;;
54384;SDS011;40284;52.878;5.998;2023-10-19T13:07:07;44.60;;;30.77;;
54384;SDS011;40284;52.878;5.998;2023-10-19T13:09:35;45.03;;;32.88;;
54384;SDS011;40284;52.878;5.998;2023-10-19T13:12:02;36.22;;;26.88;;
54384;SDS011;40284;52.878;5.998;2023-10-19T13:14:32;42.47;;;30.13;;
54384;SDS011;40284;52.878;5.998;2023-10-19T13:16:59;38.25;;;28.20;;
54384;SDS011;40284;52.878;5.998;2023-10-19T13:19:25;34.75;;;25.92;;
54384;SDS011;40284;52.878;5.998;2023-10-19T13:21:52;46.72;;;35.75;;
54384;SDS011;40284;52.878;5.998;2023-10-19T13:24:19;34.97;;;26.77;;
54384;SDS011;40284;52.878;5.998;2023-10-19T13:26:46;36.72;;;27.27;;
54384;SDS011;40284;52.878;5.998;2023-10-19T13:29:12;33.72;;;26.85;;
54384;SDS011;40284;52.878;5.998;2023-10-19T13:31:40;35.80;;;28.65;;
54384;SDS011;40284;52.878;5.998;2023-10-19T13:34:06;38.65;;;28.92;;
54384;SDS011;40284;52.878;5.998;2023-10-19T13:36:35;34.92;;;28.42;;
54384;SDS011;40284;52.878;5.998;2023-10-19T13:39:02;32.58;;;27.42;;
54384;SDS011;40284;52.878;5.998;2023-10-19T13:41:28;31.05;;;24.83;;
54384;SDS011;40284;52.878;5.998;2023-10-19T13:43:54;32.92;;;26.88;;
54384;SDS011;40284;52.878;5.998;2023-10-19T13:46:21;33.22;;;25.15;;
54384;SDS011;40284;52.878;5.998;2023-10-19T13:48:49;35.60;;;25.15;;
54384;SDS011;40284;52.878;5.998;2023-10-19T13:51:18;28.70;;;24.20;;
54384;SDS011;40284;52.878;5.998;2023-10-19T13:53:47;30.90;;;24.02;;
54384;SDS011;40284;52.878;5.998;2023-10-19T13:56:15;29.75;;;22.75;;
54384;SDS011;40284;52.878;5.998;2023-10-19T13:58:41;29.38;;;24.23;;
54384;SDS011;40284;52.878;5.998;2023-10-19T14:01:07;28.77;;;23.27;;
54384;SDS011;40284;52.878;5.998;2023-10-19T14:03:34;34.80;;;24.83;;
54384;SDS011;40284;52.878;5.998;2023-10-19T14:06:02;27.25;;;21.98;;
54384;SDS011;40284;52.878;5.998;2023-10-19T14:08:28;26.00;;;21.98;;
54384;SDS011;40284;52.878;5.998;2023-10-19T14:11:02;28.73;;;22.30;;
54384;SDS011;40284;52.878;5.998;2023-10-19T14:13:28;30.08;;;22.70;;
54384;SDS011;40284;52.878;5.998;2023-10-19T14:15:54;31.00;;;23.48;;
54384;SDS011;40284;52.878;5.998;2023-10-19T14:18:21;30.65;;;24.75;;
54384;SDS011;40284;52.878;5.998;2023-10-19T14:20:47;31.15;;;25.10;;
54384;SDS011;40284;52.878;5.998;2023-10-19T14:23:13;34.65;;;24.48;;
54384;SDS011;40284;52.878;5.998;2023-10-19T14:25:39;31.33;;;23.23;;
54384;SDS011;40284;52.878;5.998;2023-10-19T14:28:07;31.00;;;22.48;;
54384;SDS011;40284;52.878;5.998;2023-10-19T14:30:34;29.45;;;24.10;;
54384;SDS011;40284;52.878;5.998;2023-10-19T14:33:01;30.38;;;23.20;;
54384;SDS011;40284;52.878;5.998;2023-10-19T14:35:27;33.10;;;23.88;;
54384;SDS011;40284;52.878;5.998;2023-10-19T14:37:54;34.28;;;24.45;;
54384;SDS011;40284;52.878;5.998;2023-10-19T14:40:21;34.80;;;25.25;;